Time;durP1;ratioP1;P1;durP2;ratioP2;P2;SDS_P1;SDS_P2;PMS_P1;PMS_P2;Temp;Humidity;BMP_temperature;BMP_pressure;BME280_temperature;BME280_humidity;BME280_pressure;Samples;Min_cycle;Max_cycle;Signal;HPM_P1;HPM_P2
2022/03/10 00:00:36;;;;;;;36.30;18.00;;;;;;;-1.11;68.28;101842.09;1694061;84;21430;-72
2022/03/10 00:03:05;;;;;;;37.63;18.43;;;;;;;-1.10;68.23;101838.71;1693949;84;21482;-72
2022/03/10 00:05:32;;;;;;;33.90;18.47;;;;;;;-1.13;68.25;101845.91;1693823;84;21024;-72
2022/03/10 00:07:59;;;;;;;38.97;19.50;;;;;;;-1.13;68.30;101856.63;1694303;84;21313;-73
2022/03/10 00:10:26;;;;;;;43.40;21.43;;;;;;;-1.15;68.27;101856.98;1694076;84;20961;-83
2022/03/10 00:12:54;;;;;;;48.80;22.50;;;;;;;-1.19;68.23;101857.29;1694217;84;21021;-71
2022/03/10 00:15:23;;;;;;;48.47;23.43;;;;;;;-1.23;68.14;101858.41;1694060;84;21159;-71
2022/03/10 00:17:52;;;;;;;43.93;21.80;;;;;;;-1.25;68.40;101863.48;1694104;84;21495;-72
2022/03/10 00:20:21;;;;;;;44.97;21.30;;;;;;;-1.24;68.59;101867.83;1693890;84;21017;-71
2022/03/10 00:22:52;;;;;;;44.33;22.03;;;;;;;-1.20;68.67;101873.95;1694081;84;21574;-71
2022/03/10 00:25:21;;;;;;;46.67;23.13;;;;;;;-1.23;68.65;101876.00;1691494;84;21057;-83
2022/03/10 00:27:49;;;;;;;53.03;23.70;;;;;;;-1.24;68.66;101874.27;1686283;85;21246;-72
2022/03/10 00:30:16;;;;;;;52.70;23.83;;;;;;;-1.24;68.70;101874.67;1686293;85;21036;-85
2022/03/10 00:32:49;;;;;;;44.33;22.00;;;;;;;-1.27;68.64;101883.58;1686339;85;21072;-71
2022/03/10 00:35:20;;;;;;;42.33;21.90;;;;;;;-1.27;68.76;101879.72;1686278;85;21001;-72
2022/03/10 00:37:47;;;;;;;;;;;;;;;-1.29;68.85;101877.08;1688789;85;21013;-71
2022/03/10 00:40:17;;;;;;;41.83;20.67;;;;;;;-1.27;69.15;101880.59;1686309;85;21225;-71
2022/03/10 00:42:47;;;;;;;44.50;22.13;;;;;;;-1.29;69.06;101880.94;1686106;85;21033;-71
2022/03/10 00:45:17;;;;;;;46.03;21.87;;;;;;;-1.30;69.08;101888.20;1686238;85;21041;-71
2022/03/10 00:47:45;;;;;;;41.37;20.53;;;;;;;-1.30;69.26;101891.16;1686233;85;21033;-71
2022/03/10 00:50:13;;;;;;;46.13;21.67;;;;;;;-1.28;69.30;101899.81;1686231;85;21506;-71
2022/03/10 00:52:44;;;;;;;43.93;20.30;;;;;;;-1.27;69.33;101896.02;1686439;85;21129;-71
2022/03/10 00:55:15;;;;;;;49.57;21.90;;;;;;;-1.30;69.26;101900.16;1686161;85;20907;-72
2022/03/10 00:57:42;;;;;;;;;;;;;;;-1.30;69.38;101892.45;1689008;85;20957;-71
2022/03/10 01:00:11;;;;;;;52.40;23.97;;;;;;;-1.28;69.64;101899.81;1686237;85;20159;-71
2022/03/10 01:02:39;;;;;;;47.20;22.27;;;;;;;-1.27;69.49;101899.88;1686691;85;21009;-72
2022/03/10 01:05:09;;;;;;;44.33;22.20;;;;;;;-1.24;69.69;101899.98;1686224;85;21143;-71
2022/03/10 01:07:36;;;;;;;41.80;22.67;;;;;;;-1.20;69.82;101901.83;1686621;85;21045;-71
2022/03/10 01:10:06;;;;;;;51.67;23.57;;;;;;;-1.18;69.85;101898.91;1686354;85;21040;-72
2022/03/10 01:12:36;;;;;;;45.17;22.52;;;;;;;-1.15;69.75;101896.86;1686727;85;21089;-71
2022/03/10 01:15:05;;;;;;;49.33;23.45;;;;;;;-1.19;69.54;101898.45;1686303;85;21514;-71
2022/03/10 01:17:32;;;;;;;46.43;21.60;;;;;;;-1.20;69.62;101899.26;1686459;85;21124;-72
2022/03/10 01:19:59;;;;;;;46.00;20.83;;;;;;;-1.20;69.66;101899.26;1686220;85;21025;-71
2022/03/10 01:22:26;;;;;;;46.60;21.23;;;;;;;-1.23;69.53;101890.15;1686261;85;21036;-71
2022/03/10 01:24:53;;;;;;;45.53;21.90;;;;;;;-1.24;69.60;101890.11;1686220;85;20998;-71
2022/03/10 01:27:20;;;;;;;44.93;22.07;;;;;;;-1.21;69.72;101896.65;1677356;85;21419;-72
2022/03/10 01:29:47;;;;;;;45.57;20.70;;;;;;;-1.22;69.57;101891.92;1677424;85;21332;-71
2022/03/10 01:32:15;;;;;;;48.37;21.30;;;;;;;-1.26;69.52;101889.17;1677274;85;21046;-71
2022/03/10 01:34:42;;;;;;;42.27;20.47;;;;;;;-1.31;69.48;101889.00;1677424;85;21044;-72
2022/03/10 01:37:09;;;;;;;41.77;20.63;;;;;;;-1.28;69.69;101889.53;1677378;85;21492;-71
2022/03/10 01:39:36;;;;;;;43.77;21.03;;;;;;;-1.24;69.89;101886.26;1677444;85;21053;-71
2022/03/10 01:42:07;;;;;;;43.07;21.17;;;;;;;-1.24;69.74;101890.98;1677400;85;21149;-71
2022/03/10 01:44:35;;;;;;;40.37;21.67;;;;;;;-1.24;69.71;101895.26;1677685;85;21030;-72
2022/03/10 01:47:04;;;;;;;41.00;21.00;;;;;;;-1.23;69.97;101896.58;1677450;85;21041;-72
2022/03/10 01:49:34;;;;;;;43.13;20.65;;;;;;;-1.24;69.78;101885.84;1677890;85;21011;-71
2022/03/10 01:52:04;;;;;;;42.07;21.13;;;;;;;-1.26;69.93;101896.48;1677582;85;21563;-71
2022/03/10 01:54:31;;;;;;;40.28;19.37;;;;;;;-1.28;69.69;101901.97;1677875;85;21141;-71
2022/03/10 01:57:01;;;;;;;41.03;20.77;;;;;;;-1.36;69.42;101903.39;1677512;85;21037;-72
2022/03/10 01:59:28;;;;;;;43.23;20.85;;;;;;;-1.44;69.50;101900.95;1677828;85;21085;-71
2022/03/10 02:01:57;;;;;;;42.27;20.43;;;;;;;-1.48;69.64;101902.97;1677455;85;21034;-71
2022/03/10 02:04:24;;;;;;;41.27;20.83;;;;;;;-1.50;69.66;101900.33;1677813;85;21113;-71
2022/03/10 02:06:53;;;;;;;41.97;21.07;;;;;;;-1.55;69.53;101906.12;1677523;85;21147;-71
2022/03/10 02:12:08;;;;;;;44.07;21.13;;;;;;;-1.51;70.22;101910.58;1677575;85;21011;-72
2022/03/10 02:17:21;;;;;;;48.13;22.73;;;;;;;-1.49;70.72;101910.23;1677652;85;21021;-72
2022/03/10 02:19:58;;;;;;;39.13;21.40;;;;;;;-1.43;70.76;101916.88;1677645;85;21138;-72
2022/03/10 02:22:27;;;;;;;46.57;21.80;;;;;;;-1.42;70.75;101917.33;1677447;85;21542;-71
2022/03/10 02:24:54;;;;;;;47.80;23.37;;;;;;;-1.40;70.83;101920.42;1677807;85;21455;-71
2022/03/10 02:27:27;;;;;;;48.00;21.00;;;;;;;-1.40;70.83;101919.13;1663650;84;21058;-71
2022/03/10 02:29:59;;;;;;;41.07;21.90;;;;;;;-1.40;70.88;101916.56;1661919;86;21092;-71
2022/03/10 02:32:26;;;;;;;47.43;22.97;;;;;;;-1.33;71.44;101918.06;1662102;86;21119;-72
2022/03/10 02:34:53;;;;;;;45.33;22.50;;;;;;;-1.23;71.55;101912.44;1662046;86;21427;-71
2022/03/10 02:37:21;;;;;;;42.20;22.10;;;;;;;-1.22;71.49;101922.80;1661922;86;21049;-71
2022/03/10 02:39:48;;;;;;;45.23;22.73;;;;;;;-1.13;71.86;101921.82;1662101;86;21029;-71
2022/03/10 02:42:16;;;;;;;47.20;22.57;;;;;;;-1.10;71.53;101924.05;1662007;86;21238;-71
2022/03/10 02:44:47;;;;;;;51.57;23.80;;;;;;;-1.10;71.49;101933.92;1661927;86;22034;-71
2022/03/10 02:47:14;;;;;;;;;;;;;;;-1.10;71.49;101932.63;1664454;86;21041;-72
2022/03/10 02:49:42;;;;;;;41.63;20.03;;;;;;;-1.07;71.83;101937.88;1661949;86;20125;-71
2022/03/10 02:52:10;;;;;;;52.60;22.93;;;;;;;-1.03;71.99;101937.57;1661952;86;21053;-71
2022/03/10 02:54:38;;;;;;;43.17;20.80;;;;;;;-1.01;71.75;101943.66;1662030;86;21522;-71
2022/03/10 02:57:05;;;;;;;41.33;21.83;;;;;;;-1.04;71.61;101953.43;1661997;86;21153;-71
2022/03/10 02:59:32;;;;;;;41.23;21.47;;;;;;;-1.05;71.59;101955.94;1679834;81;21047;-71
2022/03/10 03:01:59;;;;;;;39.97;21.10;;;;;;;-1.06;71.32;101963.20;1671107;85;21019;-71
2022/03/10 03:04:27;;;;;;;43.30;21.30;;;;;;;-1.12;71.12;101967.30;1671516;85;21053;-72
2022/03/10 03:06:54;;;;;;;43.37;21.93;;;;;;;-1.14;71.38;101965.49;1671182;85;21439;-71
2022/03/10 03:09:22;;;;;;;48.43;22.47;;;;;;;-1.16;71.22;101968.45;1671119;85;21329;-72
2022/03/10 03:11:49;;;;;;;47.73;22.50;;;;;;;-1.19;71.26;101972.17;1671108;85;20919;-71
2022/03/10 03:14:16;;;;;;;43.00;21.83;;;;;;;-1.17;71.50;101975.68;1671135;85;21026;-72
2022/03/10 03:16:44;;;;;;;46.37;21.37;;;;;;;-1.16;71.53;101975.75;1671302;85;21007;-71
2022/03/10 03:19:11;;;;;;;47.93;23.27;;;;;;;-1.18;71.47;101985.10;1671225;85;21050;-71
2022/03/10 03:21:38;;;;;;;47.63;23.10;;;;;;;-1.14;71.68;101982.22;1671191;85;21240;-71
2022/03/10 03:24:05;;;;;;;45.37;23.70;;;;;;;-1.14;71.65;101987.36;1671032;85;20969;-72
2022/03/10 03:26:32;;;;;;;51.70;24.00;;;;;;;-1.14;71.72;101986.98;1671116;85;21041;-83
2022/03/10 03:28:59;;;;;;;44.67;23.17;;;;;;;-1.14;71.75;101995.98;1671432;85;20991;-72
2022/03/10 03:31:27;;;;;;;48.20;24.03;;;;;;;-1.11;72.03;101990.05;1671068;85;21404;-72
2022/03/10 03:33:54;;;;;;;44.50;22.27;;;;;;;-1.04;72.31;101993.73;1671332;85;21314;-71
2022/03/10 03:36:21;;;;;;;44.67;23.73;;;;;;;-1.01;72.19;101994.71;1671029;85;20962;-71
2022/03/10 03:38:49;;;;;;;43.03;22.47;;;;;;;-1.01;72.03;101995.13;1671068;85;21073;-71
2022/03/10 03:41:16;;;;;;;43.13;22.37;;;;;;;-1.01;72.04;102001.56;1671100;85;21026;-71
2022/03/10 03:43:43;;;;;;;46.47;23.33;;;;;;;-1.02;71.95;102006.26;1671394;85;21519;-71
2022/03/10 03:46:11;;;;;;;44.10;23.37;;;;;;;-1.04;71.85;102007.89;1671095;85;21503;-71
2022/03/10 03:48:38;;;;;;;44.13;22.03;;;;;;;-1.08;71.72;102013.73;1671335;85;21506;-71
2022/03/10 03:51:05;;;;;;;47.03;22.87;;;;;;;-1.13;71.65;102020.02;1671616;85;20938;-71
2022/03/10 03:53:32;;;;;;;46.90;24.70;;;;;;;-1.14;71.75;102020.81;1671421;85;21492;-71
2022/03/10 03:55:59;;;;;;;49.40;22.67;;;;;;;-1.16;71.86;102019.48;1671087;85;21294;-71
2022/03/10 03:58:26;;;;;;;46.80;22.37;;;;;;;-1.18;71.78;102022.41;1675848;83;21898;-71
2022/03/10 04:00:53;;;;;;;48.47;23.40;;;;;;;-1.20;71.87;102025.33;1707229;84;20995;-71
2022/03/10 04:03:21;;;;;;;47.20;25.60;;;;;;;-1.20;71.99;102030.47;1707377;84;21057;-71
2022/03/10 04:05:48;;;;;;;47.40;23.93;;;;;;;-1.19;72.12;102030.95;1707254;84;21480;-71
2022/03/10 04:08:15;;;;;;;46.27;23.97;;;;;;;-1.19;72.29;102027.48;1707394;84;21018;-71
2022/03/10 04:10:42;;;;;;;43.10;24.07;;;;;;;-1.15;72.54;102034.52;1707294;84;21152;-71
2022/03/10 04:13:09;;;;;;;47.80;24.40;;;;;;;-1.10;72.90;102038.55;1707432;84;21010;-72
2022/03/10 04:15:36;;;;;;;47.80;24.67;;;;;;;-1.01;73.22;102042.73;1707411;83;21027;-71
2022/03/10 04:18:04;;;;;;;48.87;23.93;;;;;;;-0.95;73.20;102037.81;1707400;84;21006;-71
2022/03/10 04:20:31;;;;;;;42.80;22.73;;;;;;;-0.93;73.16;102036.17;1707399;84;21026;-71
2022/03/10 04:22:58;;;;;;;44.63;23.67;;;;;;;-0.85;73.81;102042.48;1707377;84;21863;-71
2022/03/10 04:25:26;;;;;;;43.23;22.77;;;;;;;-0.73;73.93;102045.48;1707366;84;21079;-72
2022/03/10 04:27:56;;;;;;;49.70;25.93;;;;;;;-0.64;73.97;102045.34;1707296;84;21074;-71
2022/03/10 04:30:23;;;;;;;45.37;25.03;;;;;;;-0.59;73.95;102045.96;1707638;83;21006;-72
2022/03/10 04:32:50;;;;;;;47.90;25.43;;;;;;;-0.53;73.93;102048.74;1707315;84;21567;-72
2022/03/10 04:35:20;;;;;;;46.27;26.37;;;;;;;-0.47;74.07;102055.42;1707657;84;21195;-72
2022/03/10 04:37:51;;;;;;;56.80;32.60;;;;;;;-0.39;74.24;102055.66;1707152;84;21535;-72
2022/03/10 04:40:20;;;;;;;97.47;49.97;;;;;;;-0.31;74.41;102061.95;1707661;84;21010;-72
2022/03/10 04:42:50;;;;;;;136.50;74.60;;;;;;;-0.20;74.48;102066.60;1707286;84;21062;-72
2022/03/10 04:45:18;;;;;;;82.30;45.57;;;;;;;-0.14;74.36;102073.25;1708003;84;20991;-72
2022/03/10 04:47:45;;;;;;;103.00;55.93;;;;;;;-0.12;74.21;102077.63;1707395;84;21148;-72
2022/03/10 04:50:16;;;;;;;73.47;38.73;;;;;;;-0.10;74.24;102070.83;1707278;84;21073;-72
2022/03/10 04:52:44;;;;;;;67.65;37.45;;;;;;;-0.06;74.27;102075.67;1707685;84;21042;-72
2022/03/10 04:55:13;;;;;;;78.50;36.20;;;;;;;0.01;74.42;102075.48;1707520;84;21515;-72
2022/03/10 04:57:41;;;;;;;59.53;29.63;;;;;;;0.05;74.35;102082.47;1707500;84;21033;-72
2022/03/10 05:00:11;;;;;;;44.53;22.90;;;;;;;0.08;74.40;102081.28;1707263;84;21491;-72
2022/03/10 05:02:41;;;;;;;42.48;23.35;;;;;;;0.15;74.64;102094.43;1707300;84;21111;-72
2022/03/10 05:05:12;;;;;;;55.98;29.45;;;;;;;0.21;74.79;102090.75;1707655;84;21030;-72
2022/03/10 05:07:38;;;;;;;40.33;23.05;;;;;;;0.29;74.88;102092.30;1707460;84;21020;-72
2022/03/10 05:10:08;;;;;;;44.27;22.63;;;;;;;0.34;74.87;102093.75;1707630;84;21069;-72
2022/03/10 05:12:49;;;;;;;35.87;21.57;;;;;;;0.37;74.91;102097.29;1707296;84;21145;-72
2022/03/10 05:15:21;;;;;;;37.13;21.07;;;;;;;0.42;75.02;102098.31;1707575;84;21018;-72
2022/03/10 05:17:49;;;;;;;39.50;20.73;;;;;;;0.51;75.05;102105.89;1707363;84;21988;-72
2022/03/10 05:20:18;;;;;;;36.40;19.80;;;;;;;0.57;75.17;102102.20;1707511;84;21534;-72
2022/03/10 05:22:49;;;;;;;31.80;19.13;;;;;;;0.64;75.18;102113.19;1707695;84;21025;-72
2022/03/10 05:25:18;;;;;;;33.83;19.73;;;;;;;0.70;75.18;102108.63;1707407;84;21357;-73
2022/03/10 05:27:46;;;;;;;30.37;19.67;;;;;;;0.76;75.26;102112.27;1707585;84;21074;-72
2022/03/10 05:30:16;;;;;;;33.27;20.77;;;;;;;0.81;75.18;102107.25;1707422;84;21006;-72
2022/03/10 05:32:44;;;;;;;32.23;19.30;;;;;;;0.85;75.21;102112.95;1707887;84;21006;-72
2022/03/10 05:35:17;;;;;;;29.73;19.43;;;;;;;0.88;75.17;102118.20;1707483;84;21511;-72
2022/03/10 05:37:46;;;;;;;34.43;20.83;;;;;;;0.91;75.25;102120.88;1707707;84;21192;-72
2022/03/10 05:40:17;;;;;;;29.00;18.93;;;;;;;0.96;75.20;102122.31;1707313;84;20987;-72
2022/03/10 05:42:46;;;;;;;28.97;19.10;;;;;;;0.98;75.28;102130.56;1707742;84;21007;-72
2022/03/10 05:45:15;;;;;;;29.17;20.10;;;;;;;1.01;75.27;102133.66;1707426;84;21029;-74
2022/03/10 05:47:42;;;;;;;31.00;20.80;;;;;;;1.03;75.23;102136.75;1707884;84;20998;-72
2022/03/10 05:50:10;;;;;;;30.17;20.10;;;;;;;1.05;75.20;102133.81;1707514;84;21129;-72
2022/03/10 05:52:38;;;;;;;31.67;20.77;;;;;;;1.07;75.18;102142.45;1707584;84;20978;-75
2022/03/10 05:55:06;;;;;;;28.80;20.40;;;;;;;1.09;75.21;102147.68;1707290;84;21085;-85
2022/03/10 05:57:34;;;;;;;34.23;21.10;;;;;;;1.13;75.34;102153.80;1709774;83;21001;-84
2022/03/10 06:00:02;;;;;;;30.87;20.23;;;;;;;1.15;75.05;102153.44;1719044;82;48120;-84
2022/03/10 06:02:31;;;;;;;30.63;20.43;;;;;;;1.15;75.15;102154.31;1732097;82;21474;-84
2022/03/10 06:05:01;;;;;;;30.73;19.90;;;;;;;1.16;75.09;102156.47;1732909;82;21098;-83
2022/03/10 06:07:29;;;;;;;32.03;20.05;;;;;;;1.18;75.20;102154.40;1731308;82;21059;-84
2022/03/10 06:09:56;;;;;;;31.37;20.77;;;;;;;1.20;75.14;102149.29;1707737;82;20937;-84
2022/03/10 06:12:26;;;;;;;30.67;21.00;;;;;;;1.24;74.94;102161.03;1715655;82;20993;-84
2022/03/10 06:14:57;;;;;;;34.77;22.17;;;;;;;1.25;75.07;102169.68;1714880;83;22092;-80
2022/03/10 06:17:24;;;;;;;33.03;22.23;;;;;;;1.29;75.04;102168.50;1716178;82;20993;-84
2022/03/10 06:19:51;;;;;;;31.37;21.43;;;;;;;1.32;74.92;102176.34;1717358;83;21001;-84
2022/03/10 06:22:25;;;;;;;33.20;21.43;;;;;;;1.33;74.94;102177.20;1717505;83;21002;-84
2022/03/10 06:24:52;;;;;;;32.97;21.50;;;;;;;1.36;74.93;102168.67;1717296;83;21037;-85
2022/03/10 06:27:22;;;;;;;33.93;22.10;;;;;;;1.39;74.86;102186.88;1717402;82;21949;-84
2022/03/10 06:29:50;;;;;;;32.17;20.93;;;;;;;1.42;74.83;102194.30;1717301;83;21035;-84
2022/03/10 06:32:18;;;;;;;31.50;21.17;;;;;;;1.45;74.84;102193.51;1717463;82;21016;-83
2022/03/10 06:34:47;;;;;;;34.03;22.10;;;;;;;1.49;74.82;102197.50;1717302;83;21009;-84
2022/03/10 06:37:15;;;;;;;30.57;19.97;;;;;;;1.54;74.77;102200.22;1717545;83;21068;-83
2022/03/10 06:39:42;;;;;;;32.80;20.70;;;;;;;1.62;74.84;102210.37;1717316;83;21126;-84
2022/03/10 06:42:09;;;;;;;32.33;21.13;;;;;;;1.68;74.80;102213.55;1717432;83;20981;-84
2022/03/10 06:44:36;;;;;;;28.93;20.07;;;;;;;1.71;74.54;102220.96;1717272;83;21452;-84
2022/03/10 06:47:05;;;;;;;29.60;19.10;;;;;;;1.74;74.48;102224.05;1717644;82;21584;-84
2022/03/10 06:49:33;;;;;;;26.40;18.53;;;;;;;1.77;74.34;102226.33;1713157;83;21052;-83
2022/03/10 06:52:00;;;;;;;28.67;19.30;;;;;;;1.79;74.29;102234.11;1706956;84;21815;-83
2022/03/10 06:54:27;;;;;;;29.83;19.83;;;;;;;1.83;74.25;102230.80;1707277;82;20989;-83
2022/03/10 06:56:54;;;;;;;27.83;19.50;;;;;;;1.85;74.22;102235.57;1630207;86;21076;-81
2022/03/10 06:59:21;;;;;;;28.10;18.90;;;;;;;1.88;74.14;102236.95;1706405;84;21105;-83
2022/03/10 07:01:48;;;;;;;28.20;18.73;;;;;;;1.92;74.15;102234.05;1691777;84;20994;-83
2022/03/10 07:04:15;;;;;;;27.40;18.63;;;;;;;1.97;74.06;102244.11;1685930;84;21986;-81
2022/03/10 07:06:42;;;;;;;28.87;19.00;;;;;;;2.00;73.93;102250.66;1602012;88;21052;-83
2022/03/10 07:09:09;;;;;;;28.83;19.67;;;;;;;2.04;73.91;102248.60;1627891;88;21056;-83
2022/03/10 07:11:36;;;;;;;26.37;18.20;;;;;;;2.06;73.71;102253.41;1602133;89;21048;-83
2022/03/10 07:14:03;;;;;;;28.50;19.70;;;;;;;2.09;73.75;102252.20;1631944;87;21044;-83
2022/03/10 07:16:30;;;;;;;28.50;19.20;;;;;;;2.17;73.90;102264.05;1620545;87;21162;-82
2022/03/10 07:18:57;;;;;;;25.80;18.60;;;;;;;2.25;73.70;102262.98;1619929;88;21063;-83
2022/03/10 07:21:24;;;;;;;26.93;18.43;;;;;;;2.32;73.82;102256.69;1618588;88;21039;-82
2022/03/10 07:23:52;;;;;;;30.67;19.70;;;;;;;2.38;73.54;102258.17;1618547;88;21083;-79
2022/03/10 07:26:20;;;;;;;26.67;18.80;;;;;;;2.42;73.45;102260.41;1618788;88;21527;-83
2022/03/10 07:28:48;;;;;;;30.43;19.37;;;;;;;2.45;73.16;102265.23;1618467;88;21156;-83
2022/03/10 07:31:15;;;;;;;31.53;20.57;;;;;;;2.48;73.23;102265.73;1617745;87;21047;-81
2022/03/10 07:33:44;;;;;;;28.00;18.53;;;;;;;2.51;73.00;102272.28;1647211;86;21525;-81
2022/03/10 07:36:12;;;;;;;25.10;18.67;;;;;;;2.56;72.83;102265.52;1620614;88;21018;-82
2022/03/10 07:38:39;;;;;;;29.03;18.83;;;;;;;2.62;72.95;102268.27;1607588;89;21041;-77
2022/03/10 07:41:07;;;;;;;26.67;17.57;;;;;;;2.70;72.73;102263.28;1654860;85;21139;-81
2022/03/10 07:43:34;;;;;;;28.50;18.73;;;;;;;2.74;72.59;102257.33;1602250;89;21015;-80
2022/03/10 07:46:04;;;;;;;24.40;17.63;;;;;;;2.82;72.52;102262.28;1628035;88;21044;-76
2022/03/10 07:48:30;;;;;;;24.47;17.33;;;;;;;2.87;72.35;102261.11;1628092;88;21584;-77
2022/03/10 07:50:57;;;;;;;25.73;17.67;;;;;;;2.93;72.15;102261.25;1628002;88;21307;-78
2022/03/10 07:53:23;;;;;;;27.90;17.83;;;;;;;3.00;72.23;102259.28;1628236;88;21819;-85
2022/03/10 07:55:54;;;;;;;23.60;16.60;;;;;;;3.08;72.07;102262.93;1627936;88;21098;-84
2022/03/10 07:58:19;;;;;;;28.30;18.27;;;;;;;3.09;71.62;102266.39;1627911;88;21019;-83
2022/03/10 08:00:46;;;;;;;23.43;17.20;;;;;;;3.05;71.50;102271.93;1646324;86;21482;-80
2022/03/10 08:03:13;;;;;;;29.20;20.50;;;;;;;3.05;71.48;102261.56;1657231;86;21029;-81
2022/03/10 08:05:40;;;;;;;26.97;18.60;;;;;;;3.08;71.38;102273.72;1710129;83;21188;-78
2022/03/10 08:08:07;;;;;;;26.37;17.53;;;;;;;3.12;71.31;102271.64;1710254;83;21075;-80
2022/03/10 08:10:34;;;;;;;24.63;16.50;;;;;;;3.21;71.27;102273.56;1710118;83;21478;-78
2022/03/10 08:13:01;;;;;;;23.97;16.53;;;;;;;3.27;71.08;102280.18;1710451;83;21014;-80
2022/03/10 08:15:28;;;;;;;22.47;15.33;;;;;;;3.32;71.07;102282.46;1710142;83;21046;-83
2022/03/10 08:17:55;;;;;;;24.23;15.43;;;;;;;3.41;70.92;102280.11;1710339;83;21111;-78
2022/03/10 08:20:23;;;;;;;21.47;15.17;;;;;;;3.55;70.84;102276.52;1709942;83;21077;-79
2022/03/10 08:22:50;;;;;;;20.07;14.43;;;;;;;3.72;70.64;102286.83;1710419;83;21479;-79
2022/03/10 08:25:18;;;;;;;19.43;13.83;;;;;;;3.85;70.06;102287.94;1710010;83;21435;-80
2022/03/10 08:27:47;;;;;;;20.27;14.27;;;;;;;3.89;69.24;102287.61;1710297;83;21510;-80
2022/03/10 08:30:16;;;;;;;18.93;13.57;;;;;;;3.85;68.76;102290.97;1710081;83;21147;-79
2022/03/10 08:32:45;;;;;;;17.37;13.30;;;;;;;3.80;68.72;102299.54;1710233;83;21073;-79
2022/03/10 08:35:15;;;;;;;17.20;12.65;;;;;;;3.93;69.25;102292.87;1710423;83;21038;-79
2022/03/10 08:37:43;;;;;;;18.43;13.53;;;;;;;4.09;68.83;102293.20;1701386;83;20998;-80
2022/03/10 08:40:18;;;;;;;14.23;11.70;;;;;;;4.19;68.54;102295.14;1684661;83;21045;-79
2022/03/10 08:42:47;;;;;;;16.70;12.53;;;;;;;4.29;68.10;102288.39;1681538;85;22003;-80
2022/03/10 08:45:14;;;;;;;16.10;11.30;;;;;;;4.42;67.87;102287.78;1681684;85;20998;-80
2022/03/10 08:47:42;;;;;;;17.73;12.40;;;;;;;4.53;67.76;102288.84;1719589;83;21028;-80
2022/03/10 08:50:11;;;;;;;15.73;11.63;;;;;;;4.65;67.08;102292.95;1690601;84;21477;-81
2022/03/10 08:52:44;;;;;;;16.53;11.73;;;;;;;4.69;66.70;102296.07;1675187;84;21210;-80
2022/03/10 08:55:12;;;;;;;13.43;10.30;;;;;;;4.67;66.14;102298.19;1635113;85;21950;-79
2022/03/10 08:57:39;;;;;;;18.50;11.40;;;;;;;4.70;66.03;102297.80;1662931;86;21025;-80
2022/03/10 09:00:10;;;;;;;15.00;11.23;;;;;;;4.79;65.57;102304.02;1663039;86;21103;-81
2022/03/10 09:02:40;;;;;;;12.37;9.50;;;;;;;4.85;65.56;102300.22;1662947;86;21588;-80
2022/03/10 09:05:09;;;;;;;12.57;9.17;;;;;;;4.99;65.41;102295.25;1636197;87;21033;-83
2022/03/10 09:07:36;;;;;;;16.37;10.33;;;;;;;5.02;65.02;102296.62;1662101;86;21207;-84
2022/03/10 09:10:07;;;;;;;12.43;9.17;;;;;;;5.02;64.73;102303.12;1661274;86;21035;-81
2022/03/10 09:12:34;;;;;;;13.13;9.63;;;;;;;5.07;64.32;102298.45;1661041;86;21514;-80
2022/03/10 09:15:01;;;;;;;11.13;8.60;;;;;;;5.12;63.95;102298.06;1661394;86;21532;-80
2022/03/10 09:17:28;;;;;;;13.27;10.40;;;;;;;5.23;64.13;102297.38;1709769;83;21020;-80
2022/03/10 09:19:55;;;;;;;12.33;7.97;;;;;;;5.34;63.79;102293.20;1676015;85;21946;-79
2022/03/10 09:22:23;;;;;;;12.17;8.17;;;;;;;5.49;63.78;102284.77;1658384;86;21013;-78
2022/03/10 09:24:50;;;;;;;11.13;8.43;;;;;;;5.65;63.21;102295.80;1648436;87;21478;-78
2022/03/10 09:27:17;;;;;;;12.60;8.00;;;;;;;5.68;62.35;102299.78;1658516;86;21063;-78
2022/03/10 09:29:44;;;;;;;11.20;7.97;;;;;;;5.73;61.98;102305.89;1658690;86;21502;-79
2022/03/10 09:32:12;;;;;;;8.73;7.03;;;;;;;5.79;61.85;102305.09;1629425;87;21222;-78
2022/03/10 09:34:39;;;;;;;10.00;6.73;;;;;;;5.89;61.48;102307.41;1658726;86;20968;-81
2022/03/10 09:37:06;;;;;;;9.33;6.33;;;;;;;6.00;60.98;102308.45;1708783;83;21521;-80
2022/03/10 09:39:33;;;;;;;9.50;6.67;;;;;;;6.12;60.61;102306.42;1706318;83;21065;-80
2022/03/10 09:42:05;;;;;;;7.93;6.00;;;;;;;6.22;59.84;102306.55;1706241;84;21028;-86
2022/03/10 09:44:35;;;;;;;6.90;4.70;;;;;;;6.34;59.53;102303.63;1706369;84;21543;-80
2022/03/10 09:47:04;;;;;;;7.00;5.30;;;;;;;6.46;58.81;102308.56;1706345;84;21029;-83
2022/03/10 09:49:35;;;;;;;5.77;4.13;;;;;;;6.55;58.20;102309.08;1640497;87;21025;-81
2022/03/10 09:52:02;;;;;;;5.17;3.93;;;;;;;6.68;58.00;102308.34;1664734;86;21055;-80
2022/03/10 09:54:29;;;;;;;6.77;4.63;;;;;;;6.84;57.59;102306.73;1640586;86;21029;-78
2022/03/10 09:56:57;;;;;;;5.77;4.00;;;;;;;6.96;56.97;102306.42;1664523;85;21156;-80
2022/03/10 09:59:30;;;;;;;7.60;4.23;;;;;;;6.96;56.14;102307.73;1640428;87;21346;-80
2022/03/10 10:01:57;;;;;;;9.67;4.60;;;;;;;7.14;56.17;102308.72;1658503;86;21036;-78
2022/03/10 10:04:24;;;;;;;7.27;4.73;;;;;;;7.29;55.14;102320.16;1650524;85;21510;-82
2022/03/10 10:07:12;;;;;;;12.17;6.53;;;;;;;7.24;54.36;102313.59;1672000;85;21018;-77
2022/03/10 10:09:50;;;;;;;8.33;5.50;;;;;;;7.32;53.82;102317.57;1671043;85;21232;-80
2022/03/10 10:12:17;;;;;;;6.97;5.20;;;;;;;7.39;53.49;102316.73;1672016;84;21033;-80
2022/03/10 10:14:46;;;;;;;9.93;5.83;;;;;;;7.45;53.11;102311.98;1650127;87;21041;-83
2022/03/10 10:17:14;;;;;;;7.97;5.40;;;;;;;7.63;53.25;102311.24;1672145;85;21009;-78
2022/03/10 10:19:42;;;;;;;9.73;6.27;;;;;;;7.87;53.26;102309.17;1648477;86;21111;-80
2022/03/10 10:22:20;;;;;;;7.93;5.97;;;;;;;8.01;52.49;102308.39;1642305;86;21974;-81
2022/03/10 10:24:53;;;;;;;8.53;5.13;;;;;;;8.14;52.62;102304.06;1675510;85;21561;-83
2022/03/10 10:27:25;;;;;;;8.03;5.27;;;;;;;8.39;51.77;102310.27;1680560;85;21033;-79
2022/03/10 10:29:59;;;;;;;6.33;5.00;;;;;;;8.56;51.65;102314.22;1676338;85;21286;-80
2022/03/10 10:32:38;;;;;;;6.73;4.60;;;;;;;8.73;50.96;102306.44;1677821;85;21093;-83
2022/03/10 10:35:13;;;;;;;6.30;4.97;;;;;;;8.80;50.36;102313.39;1647798;87;22146;-83
2022/03/10 10:37:44;;;;;;;7.97;5.53;;;;;;;8.97;50.38;102302.94;1649889;86;21024;-84
2022/03/10 10:40:13;;;;;;;6.67;5.00;;;;;;;9.19;49.44;102294.65;1662307;85;21147;-82
2022/03/10 10:42:40;;;;;;;6.63;4.80;;;;;;;9.29;49.34;102309.92;1655520;85;21077;-78
2022/03/10 10:45:34;;;;;;;7.35;5.22;;;;;;;9.43;48.97;102298.13;1650746;86;21029;-82
2022/03/10 10:48:05;;;;;;;7.03;4.70;;;;;;;9.49;48.28;102305.52;1663341;86;21301;-78
2022/03/10 10:50:34;;;;;;;9.23;6.78;;;;;;;9.70;48.15;102303.70;1663527;86;21043;-78
2022/03/10 10:53:03;;;;;;;9.17;6.30;;;;;;;9.90;47.19;102306.28;1673796;84;21037;-79
2022/03/10 10:55:36;;;;;;;6.43;4.80;;;;;;;9.85;46.68;102304.97;1673643;85;22070;-78
2022/03/10 10:58:16;;;;;;;6.30;4.50;;;;;;;9.90;46.24;102303.22;1673543;84;21077;-77
2022/03/10 11:00:47;;;;;;;7.95;6.20;;;;;;;10.09;46.51;102300.50;1673767;85;21558;-78
2022/03/10 11:03:31;;;;;;;12.50;9.50;;;;;;;10.27;45.87;102298.69;1673507;84;21016;-78
2022/03/10 11:05:59;;;;;;;9.03;7.20;;;;;;;10.36;45.41;102299.08;1673660;84;21024;-77
2022/03/10 11:08:30;;;;;;;5.87;4.47;;;;;;;10.35;44.88;102298.66;1673587;85;21521;-77
2022/03/10 11:10:57;;;;;;;5.65;4.50;;;;;;;10.30;43.98;102303.50;1673641;85;21052;-78
2022/03/10 11:13:24;;;;;;;7.00;5.10;;;;;;;10.21;43.66;102297.84;1673681;84;21125;-79
2022/03/10 11:15:53;;;;;;;8.80;5.80;;;;;;;10.35;43.69;102297.80;1673653;85;21519;-76
2022/03/10 11:18:23;;;;;;;5.92;4.95;;;;;;;10.56;43.73;102298.09;1673594;85;21017;-77
2022/03/10 11:20:58;;;;;;;6.87;5.08;;;;;;;10.71;43.43;102296.68;1673862;85;21084;-76
2022/03/10 11:23:50;;;;;;;7.55;5.35;;;;;;;10.88;43.16;102293.48;1672224;85;21728;-76
2022/03/10 11:26:29;;;;;;;7.05;5.42;;;;;;;10.91;42.46;102291.27;1673773;85;22006;-76
2022/03/10 11:28:58;;;;;;;7.45;5.58;;;;;;;10.95;42.68;102290.38;1673286;84;21032;-74